5 juli 2022

Tijd Code Weer Temp. Zicht Plafond Wind METAR/SPECI
10:00 a.m.
V
90 °F 6¼ mi+ - 030° 030° 7 kt METAR AYPY 050000Z 03007KT 9999 HZ FEW025 FEW050 32/23 Q1009
6:00 a.m.
V
77 °F 6¼ mi+ - Var Var 4 kt METAR AYPY 042000Z VRB04KT 9999 SCT050 25/24 Q1007 RMK
5:00 a.m.
V
75 °F 6¼ mi+ - Var Var 4 kt METAR AYPY 041900Z VRB04KT 9999 SCT050 24/24 Q1007
4:00 a.m.
V
77 °F 6¼ mi+ - 310° 310° 5 kt METAR AYPY 041800Z 31005KT 9999 SCT040 25/24 Q1007
3:00 a.m.
V
77 °F 6¼ mi+ - Var Var 3 kt METAR AYPY 041700Z VRB03KT 9999 SCT040 25/24 Q1007
2:00 a.m.
V
77 °F 6¼ mi+ - 300° 300° 5 kt METAR AYPY 041600Z 30005KT 9999 SCT050 25/24 Q1007
12:00 a.m.
V
79 °F 6¼ mi+ - 180° 180° 5 kt METAR AYPY 041400Z 18005KT 9999 SCT040 26/25 Q1008

4 juli 2022

Tijd Code Weer Temp. Zicht Plafond Wind METAR/SPECI
11:00 p.m.
V
81 °F 6¼ mi+ - 180° 180° 5 kt METAR AYPY 041300Z 18005KT 9999 SCT040 27/26 Q1008
10:00 p.m.
V
82 °F 6¼ mi+ - 180° 180° 5 kt METAR AYPY 041200Z 18005KT 9999 FEW030 28/25 Q1008
9:00 p.m.
V
82 °F 6¼ mi+ - 190° 190° 5 kt METAR AYPY 041100Z 19005KT 9999 FEW050 28/25 Q1008
8:00 p.m.
V
82 °F 6¼ mi+ - 180° 180° 5 kt METAR AYPY 041000Z 18005KT 9999 FEW050 28/25 Q1007
7:00 p.m.
V
81 °F 6¼ mi+ - 160° 160° 5 kt METAR AYPY 040900Z 16005KT 9999 FEW050 27/25 Q1006
6:00 p.m.
V
84 °F 6¼ mi+ - 180° 180° 10 kt METAR AYPY 040800Z 18010KT 9999 HZ FEW050 29/25 Q1005
5:00 p.m.
V
86 °F 6¼ mi+ - 200° 200° 10 kt METAR AYPY 040700Z 20010KT 9999 HZ FEW040 30/24 Q1004
4:00 p.m.
V
88 °F 6¼ mi+ - 220° 220° 10 kt METAR AYPY 040600Z 22010KT 9999 FEW030 31/24 Q1004
3:00 p.m.
V
90 °F 6¼ mi+ - 200° 200° 10 kt METAR AYPY 040500Z 20010KT 9999 FEW030 32/24 Q1004
2:00 p.m.
V
90 °F 6¼ mi+ - 200° 200° 9 kt METAR AYPY 040400Z 20009KT 9999 SCT018 32/24 Q1004
1:00 p.m.
V
90 °F 6¼ mi+ - 200° 200° 7 kt METAR AYPY 040300Z 20007KT 9999 SCT018 32/24 Q1005
12:00 p.m.
V
88 °F 6¼ mi+ - 190° 190° 5 - 10 kt METAR AYPY 040200Z 19005G10KT 9999 SCT035 31/24 Q1006
11:00 a.m.
V
90 °F 6¼ mi+ - Var Var 3 kt METAR AYPY 040100Z VRB03KT 9999 SCT030 32/24 Q1007
10:01 a.m.
V
88 °F 6¼ mi+ - 340° 340° 5 kt METAR AYPY 040001Z 34005KT 9999 HZ SCT025 31/24 Q1007
10:00 a.m.
V
86 °F 6¼ mi+ - 360° 360° 5 kt METAR AYPY 040000Z 36005KT 9999 SCT018 SCT280 30/23 Q1007
9:00 a.m.
V
84 °F 6¼ mi+ - Var Var 4 kt METAR AYPY 032300Z VRB04KT 9999 FUHZ FEW030 29/24 Q1008
8:00 a.m.
V
79 °F 6¼ mi+ - Var Var 4 kt METAR AYPY 032200Z VRB04KT 9999 FUHZ SCT035 26/24 Q1007=
7:00 a.m.
V
75 °F 6¼ mi+ - Var Var 3 kt METAR AYPY 032100Z VRB03KT 9999 HZ FEW030 SCT100 24/23 Q1007
6:00 a.m.
V
75 °F 6¼ mi+ - Var Var 3 kt METAR AYPY 032000Z VRB03KT 9999 FEW040 SCT060 24/24 Q1006
5:00 a.m.
V
75 °F 6¼ mi+ - Var Var 3 kt METAR AYPY 031900Z VRB03KT 9999 FEW030 SCT140 24/24 Q1006
4:00 a.m.
V
77 °F 6¼ mi+ - Var Var 3 kt METAR AYPY 031800Z VRB03KT 9999 SCT030 SCT140 25/24 Q1006
3:00 a.m.
V
75 °F 6¼ mi+ - Var Var 3 kt METAR AYPY 031700Z VRB03KT 9999 SCT140 24/24 Q1006
2:00 a.m.
V
77 °F 6¼ mi+ - Var Var 3 kt METAR AYPY 031600Z VRB03KT 9999 SCT140 25/24 Q1007
1:00 a.m.
V
77 °F 6¼ mi+ - Var Var 3 kt METAR AYPY 031500Z VRB03KT 9999 FEW080 25/24 Q1007
12:00 a.m.
V
77 °F 6¼ mi+ - Var Var 4 kt METAR AYPY 031400Z VRB04KT 9999 FEW080 25/24 Q1007

3 juli 2022

Tijd Code Weer Temp. Zicht Plafond Wind METAR/SPECI
9:00 p.m.
V
79 °F 6¼ mi+ - Var Var 2 kt METAR AYPY 031100Z VRB02KT 9999 FEW070 26/24 Q1007
8:00 p.m.
V
79 °F 6¼ mi+ - 150° 150° 5 kt METAR AYPY 031000Z 15005KT 9999 FEW050 26/24 Q1006
7:00 p.m.
V
81 °F 6¼ mi+ - 180° 180° 5 kt METAR AYPY 030900Z 18005KT 9999 FEW040 27/24 Q1006
6:00 p.m.
V
82 °F 6¼ mi+ - 180° 180° 10 kt METAR AYPY 030800Z 18010KT 9999 HZ FEW015 SCT040 28/24 Q1005
5:00 p.m.
V
82 °F 6¼ mi+ - 190° 190° 10 kt METAR AYPY 030700Z 19010KT 9999 HZ FEW010 SCT030 28/23 Q1005
4:00 p.m.
V
86 °F 6¼ mi+ - 180° 180° 10 kt METAR AYPY 030600Z 18010KT 9999 HZ FEW010 SCT030 30/24 Q1005
3:00 p.m.
V
88 °F 6¼ mi+ - 200° 200° 10 kt METAR AYPY 030500Z 20010KT 9999 FUHZ FEW010 SCT035 31/24 Q1005
2:00 p.m.
V
88 °F 6¼ mi+ - 220° 220° 12 kt METAR AYPY 030400Z 22012KT 9999 FUHZ FEW010 SCT035 31/22 Q1006
1:00 p.m.
V
88 °F 6¼ mi+ - 220° 220° 10 - 15 kt METAR AYPY 030300Z 22010G15KT 9999 FUHZ SCT035 31/22 Q1006
12:00 p.m.
V
88 °F 6¼ mi+ - 220° 220° 15 kt METAR AYPY 030200Z 22015KT 9999 HZ FEW035 31/22 Q1007
11:00 a.m.
V
88 °F 6¼ mi+ - 120° 120° 10 kt METAR AYPY 030100Z 12010KT 9999 HZ FEW040 SCT100 31/22 Q1007
10:00 a.m.
V
86 °F 6¼ mi+ - Var Var 3 kt METAR AYPY 030000Z VRB03KT 9999 HZ FEW040 30/22 Q1008
9:00 a.m.
V
82 °F 6¼ mi+ - Var Var 3 kt METAR AYPY 022300Z VRB03KT 9999 HZ FEW050 28/23 Q1008
8:00 a.m.
V
77 °F 6¼ mi+ - 260° 260° 5 kt METAR AYPY 022200Z 26005KT 9999 HZ SCT060 25/23 Q1008
7:00 a.m.
V
73 °F 6¼ mi+ - 330° 330° 5 kt METAR AYPY 022100Z 33005KT 9999 HZ SCT050 23/23 Q1007
6:00 a.m.
V
73 °F 6¼ mi+ - 360° 360° 5 kt METAR AYPY 022000Z 36005KT 9999 SCT050 23/23 Q1007
5:00 a.m.
V
75 °F 6¼ mi+ - 360° 360° 5 kt METAR AYPY 021900Z 36005KT 9999 SCT050 24/23 Q1007
4:00 a.m.
V
75 °F 6¼ mi+ - 350° 350° 10 kt METAR AYPY 021800Z 35010KT 9999 SCT050 24/23 Q1007
3:00 a.m.
V
77 °F 6¼ mi+ - 350° 350° 10 kt METAR AYPY 021700Z 35010KT 9999 SCT050 25/23 Q1007
2:00 a.m.
V
77 °F 6¼ mi+ 5.000 ft 340° 340° 10 kt METAR AYPY 021600Z 34010KT 9999 SHRA FEW030 BKN050 25/24 Q1007
1:00 a.m.
V
77 °F 6¼ mi+ 5.000 ft 340° 340° 10 kt METAR AYPY 021500Z 34010KT 9999 SHRA BKN050 25/24 Q1007
Oudere gegevens

Installeer onze app

Gemakkelijke toegang tot al het luchtvaartweer op je mobiele telefoon en tablet.
Met veel functies die niet op de website beschikbaar zijn, zoals offline ondersteuning en een persoonlijke lijst van vliegvelden.

Met cookies volgen wij en derde partijen jouw internetgedrag binnen onze site. Als je verdergaat gaan we ervan uit dat je dit goedvindt. Meer info